Latest Weather Observations for Katanning RS

IDW60801

Issued at 1:33 pm WST Wednesday 20 June 2018 (issued every 10 minutes, with the page automatically refreshed every 10 minutes)

About weather observations | Map of weather stations | Latest weather observations for WA | Other Formats
Station Details ID: 010916 Name: KATANNING Lat: -33.69 Lon: 117.61 Height: 320.0 m
Data from the previous 72 hours. | See also: Recent months at Katanning RS
Date/Time
WST
Temp
°C
App
Temp
°C
Dew
Point
°C
Rel
Hum
%
Delta-T
°C
Wind Press
QNH
hPa
Press
MSL
hPa
Rain since
9am
mm
Dir  Spd
km/h
Gust
km/h
Spd
kts
Gust
kts
20/01:30pm 16.0 13.0 9.2 64 3.5 WNW 15 22 8 12 1026.1 1026.2 0.0
20/01:00pm 16.1 13.4 10.2 68 3.1 W 15 20 8 11 1026.2 1026.3 0.0
20/12:30pm 15.5 12.3 9.8 69 3.0 W 17 22 9 12 1026.4 1026.5 0.0
20/12:00pm 15.1 12.2 9.7 70 2.8 WNW 15 20 8 11 1026.5 1026.6 0.0
20/11:30am 15.2 13.9 11.2 77 2.2 NW 9 15 5 8 1026.9 1027.0 0.0
20/11:00am 13.8 12.0 11.0 83 1.5 NW 11 17 6 9 1027.4 1027.5 0.0
20/10:30am 13.0 11.2 10.7 86 1.2 NW 11 17 6 9 1027.8 1027.9 0.0
20/10:00am 12.4 11.3 10.6 89 0.9 WNW 7 9 4 5 1027.9 1028.0 0.0
20/09:30am 12.1 10.5 10.3 89 0.9 WNW 9 13 5 7 1027.9 1028.0 0.0
20/09:00am 12.0 10.1 10.4 90 0.8 WNW 11 15 6 8 1027.8 1027.9 1.8
20/08:30am 11.8 9.8 10.2 90 0.8 NW 11 15 6 8 1027.5 1027.6 1.8
20/08:00am 11.7 9.7 10.1 90 0.8 NW 11 15 6 8 1027.3 1027.4 1.8
20/07:30am 11.4 10.3 9.8 90 0.8 NW 6 9 3 5 1027.1 1027.2 1.8
20/07:00am 11.5 10.4 9.9 90 0.8 WNW 6 9 3 5 1026.8 1026.9 1.8
20/06:30am 11.5 10.4 9.9 90 0.8 WNW 6 7 3 4 1026.4 1026.5 1.8
20/06:00am 11.6 10.5 10.0 90 0.8 W 6 9 3 5 1026.2 1026.3 1.8
20/05:30am 11.5 10.4 9.9 90 0.8 W 6 9 3 5 1026.0 1026.1 1.8
20/05:00am 11.6 9.9 10.0 90 0.8 W 9 15 5 8 1026.1 1026.2 1.8
20/04:30am 11.6 9.6 10.0 90 0.8 W 11 17 6 9 1026.0 1026.1 1.8
20/04:00am 11.7 10.4 10.1 90 0.8 W 7 11 4 6 1026.0 1026.1 1.8
20/03:30am 11.7 10.1 10.1 90 0.8 WNW 9 11 5 6 1026.1 1026.2 1.8
20/03:00am 11.8 9.4 10.2 90 0.8 W 13 19 7 10 1026.1 1026.2 1.8
20/02:30am 11.9 9.9 10.3 90 0.8 WNW 11 17 6 9 1026.0 1026.1 1.8
20/02:00am 12.1 11.0 10.5 90 0.8 W 7 11 4 6 1025.8 1025.8 1.8
20/01:30am 12.2 11.1 10.6 90 0.8 W 7 9 4 5 1025.7 1025.7 1.6
20/01:00am 12.2 10.7 10.6 90 0.8 W 9 13 5 7 1025.7 1025.7 1.4
20/12:30am 12.2 11.1 10.6 90 0.8 WNW 7 9 4 5 1025.7 1025.7 1.4
20/12:00am 12.1 10.9 10.3 89 0.9 WNW 7 11 4 6 1025.7 1025.7 1.2
 
Date/Time
WST
Temp
°C
App
Temp
°C
Dew
Point
°C
Rel
Hum
%
Delta-T
°C
Wind Press
QNH
hPa
Press
MSL
hPa
Rain since
9am
mm
Dir  Spd
km/h
Gust
km/h
Spd
kts
Gust
kts
19/11:30pm 12.2 11.1 10.6 90 0.8 W 7 11 4 6 1025.7 1025.7 1.2
19/11:00pm 12.4 11.0 10.8 90 0.8 WNW 9 17 5 9 1025.6 1025.6 1.2
19/10:30pm 12.1 10.5 10.3 89 0.9 W 9 11 5 6 1025.4 1025.5 1.2
19/10:00pm 12.4 11.3 10.6 89 0.9 NW 7 11 4 6 1025.3 1025.4 1.2
19/09:30pm 12.5 11.4 10.7 89 1.0 WNW 7 11 4 6 1025.6 1025.6 1.2
19/09:00pm 12.5 11.4 10.7 89 0.9 WNW 7 9 4 5 1025.3 1025.4 1.2
19/08:30pm 12.6 11.5 10.7 88 1.0 W 7 9 4 5 1025.4 1025.5 1.2
19/08:00pm 12.7 11.6 10.8 88 1.0 WNW 7 9 4 5 1025.1 1025.2 1.2
19/07:30pm 12.8 11.3 10.7 87 1.1 NW 9 13 5 7 1024.9 1025.0 1.2
19/07:00pm 13.0 11.9 10.7 86 1.2 WNW 7 11 4 6 1024.9 1025.0 0.0
19/06:30pm 13.1 11.7 10.8 86 1.2 WNW 9 15 5 8 1024.7 1024.8 0.0
19/06:00pm 13.0 11.5 10.7 86 1.2 NW 9 15 5 8 1024.3 1024.4 0.0
19/05:30pm 13.3 11.1 10.7 84 1.4 WNW 13 19 7 10 1023.9 1024.0 0.0
19/05:00pm 14.2 11.0 10.0 76 2.2 WNW 17 24 9 13 1023.6 1023.7 0.0
19/04:30pm 14.6 12.1 9.8 73 2.5 WNW 13 19 7 10 1023.4 1023.5 0.0
19/04:00pm 15.0 11.3 9.4 69 2.9 WNW 19 32 10 17 1023.2 1023.3 0.0
19/03:30pm 15.2 11.5 9.6 69 2.9 WNW 19 32 10 17 1023.0 1023.0 0.0
19/03:00pm 15.0 11.8 9.8 71 2.7 WNW 17 24 9 13 1022.8 1022.8 0.0
19/02:30pm 14.9 11.3 9.7 71 2.7 WNW 19 28 10 15 1022.6 1022.6 0.0
19/02:00pm 15.1 10.9 9.9 71 2.7 WNW 22 32 12 17 1022.5 1022.5 0.0
19/01:30pm 15.3 11.5 9.9 70 2.9 WNW 20 37 11 20 1022.5 1022.5 0.0
19/01:00pm 15.1 10.5 9.5 69 2.9 W 24 32 13 17 1022.5 1022.5 0.0
19/12:30pm 14.5 9.1 9.5 72 2.6 W 28 37 15 20 1022.8 1022.8 0.0
19/12:00pm 14.4 9.8 9.6 73 2.5 WNW 24 35 13 19 1023.1 1023.1 0.0
19/11:30am 14.2 10.9 9.6 74 2.4 WNW 17 24 9 13 1023.5 1023.6 0.0
19/11:00am 12.8 8.4 8.9 77 2.0 NW 22 30 12 16 1023.6 1023.7 0.0
19/10:30am 11.4 7.1 7.9 79 1.7 NW 20 30 11 16 1023.7 1023.8 0.0
19/10:00am 10.4 6.2 7.6 83 1.4 NW 19 28 10 15 1023.9 1024.0 0.0
19/09:30am 9.3 5.3 6.7 84 1.2 NW 17 22 9 12 1024.0 1024.1 0.0
19/09:00am 8.6 5.3 6.6 87 0.9 NW 13 20 7 11 1023.5 1023.6 0.6
19/08:30am 7.6 3.8 5.6 87 0.9 NW 15 22 8 12 1023.3 1023.4 0.6
19/08:00am 6.9 2.9 5.1 88 0.8 NW 15 17 8 9 1023.2 1023.3 0.6
19/07:30am 6.5 2.4 4.5 87 0.9 NW 15 19 8 10 1022.8 1022.8 0.6
19/07:00am 6.1 2.3 4.1 87 0.9 NW 13 19 7 10 1022.4 1022.4 0.6
19/06:30am 6.0 2.6 3.8 86 0.9 WNW 11 17 6 9 1022.0 1022.1 0.6
19/06:00am 5.9 2.1 3.7 86 0.9 NW 13 17 7 9 1021.6 1021.7 0.6
19/05:30am 5.8 1.5 3.5 85 1.0 NW 15 20 8 11 1021.4 1021.5 0.6
19/05:00am 5.7 1.8 3.2 84 1.1 NW 13 17 7 9 1021.2 1021.3 0.6
19/04:30am 6.4 2.6 4.1 85 1.0 WNW 13 19 7 10 1021.0 1021.1 0.6
19/04:00am 6.0 2.5 3.7 85 1.0 W 11 15 6 8 1020.7 1020.8 0.6
19/03:30am 5.8 2.6 3.3 84 1.1 WNW 9 15 5 8 1020.8 1020.9 0.6
19/03:00am 6.0 2.5 3.3 83 1.1 WNW 11 17 6 9 1020.8 1020.9 0.6
19/02:30am 6.4 2.9 3.7 83 1.2 WNW 11 17 6 9 1020.7 1020.8 0.6
19/02:00am 6.4 3.3 3.6 82 1.2 WNW 9 15 5 8 1020.4 1020.4 0.6
19/01:30am 6.6 2.4 3.8 82 1.2 WNW 15 19 8 10 1020.1 1020.1 0.6
19/01:00am 6.6 2.4 3.8 82 1.2 WNW 15 22 8 12 1020.1 1020.1 0.6
19/12:30am 6.5 2.7 3.7 82 1.2 WNW 13 19 7 10 1020.0 1020.0 0.6
19/12:00am 6.7 2.8 3.5 80 1.4 WNW 13 17 7 9 1019.8 1019.8 0.6
 
Date/Time
WST
Temp
°C
App
Temp
°C
Dew
Point
°C
Rel
Hum
%
Delta-T
°C
Wind Press
QNH
hPa
Press
MSL
hPa
Rain since
9am
mm
Dir  Spd
km/h
Gust
km/h
Spd
kts
Gust
kts
18/11:30pm 7.0 2.4 3.6 79 1.5 WNW 17 24 9 13 1019.9 1019.9 0.6
18/11:00pm 6.8 2.6 3.6 80 1.4 W 15 20 8 11 1020.1 1020.1 0.6
18/10:30pm 6.9 2.7 3.7 80 1.4 WNW 15 20 8 11 1019.8 1019.8 0.6
18/10:00pm 7.0 2.4 3.6 79 1.5 W 17 24 9 13 1019.8 1019.8 0.6
18/09:30pm 6.8 2.9 3.4 79 1.5 WNW 13 19 7 10 1020.0 1020.0 0.6
18/09:00pm 6.9 3.4 3.7 80 1.4 WNW 11 15 6 8 1020.0 1020.0 0.6
18/08:30pm 7.2 3.8 3.8 79 1.5 WNW 11 17 6 9 1019.8 1019.8 0.6
18/08:00pm 7.2 3.8 4.2 81 1.3 NW 11 17 6 9 1019.6 1019.6 0.6
18/07:30pm 7.7 3.9 3.9 77 1.7 NW 13 19 7 10 1019.1 1019.1 0.6
18/07:00pm 8.3 4.5 3.8 73 2.0 WNW 13 20 7 11 1018.6 1018.7 0.6
18/06:30pm 8.2 4.3 3.5 72 2.1 WNW 13 17 7 9 1017.6 1017.6 0.6
18/06:00pm 8.6 5.0 3.2 69 2.3 W 11 15 6 8 1017.0 1017.0 0.6
18/05:30pm 9.1 4.8 3.3 67 2.5 WSW 15 20 8 11 1016.2 1016.2 0.6
18/05:00pm 9.7 5.5 3.7 66 2.7 WSW 15 24 8 13 1015.9 1015.9 0.6
18/04:30pm 10.4 5.4 3.7 63 3.0 WSW 19 26 10 14 1015.4 1015.5 0.6
18/04:00pm 10.7 4.9 4.2 64 2.9 WSW 24 33 13 18 1015.0 1015.0 0.6
18/03:30pm 11.0 4.3 3.5 60 3.4 WSW 28 39 15 21 1014.8 1014.8 0.6
18/03:00pm 11.2 4.5 5.7 69 2.6 W 30 44 16 24 1014.4 1014.4 0.6
18/02:37pm 11.1 4.5 4.1 62 3.2 WSW 28 46 15 25 1014.1 1014.1 0.6
18/02:30pm 12.2 6.1 6.5 68 2.8 W 28 39 15 21 1014.0 1014.0 0.6
18/02:00pm 11.8 4.5 4.5 61 3.4 W 32 43 17 23 1013.5 1013.5 0.6
18/01:30pm 12.1 5.0 6.4 68 2.7 WSW 33 50 18 27 1013.3 1013.3 0.6
18/01:00pm 10.4 4.3 6.7 78 1.8 W 28 44 15 24 1013.2 1013.2 0.6
18/12:39pm 12.6 6.4 6.0 64 3.2 WNW 28 48 15 26 1012.7 1012.7 0.0
18/12:30pm 12.5 7.0 5.7 63 3.2 WNW 24 39 13 21 1012.5 1012.4 0.0
18/12:00pm 12.5 4.4 5.2 61 3.4 WNW 37 56 20 30 1012.6 1012.5 0.0
18/11:45am 13.2 6.2 6.1 62 3.4 WNW 32 50 17 27 1012.2 1012.2 0.0
18/11:30am 13.0 6.4 6.1 63 3.3 WNW 30 43 16 23 1012.2 1012.2 0.0
18/11:00am 12.6 7.1 7.5 71 2.5 WNW 26 35 14 19 1012.6 1012.5 0.0
18/10:30am 12.4 8.3 8.7 78 1.9 WNW 20 30 11 16 1012.9 1012.9 0.0
18/10:00am 11.8 7.4 8.8 82 1.5 WNW 22 32 12 17 1012.8 1012.8 0.0
18/09:30am 11.2 7.1 8.6 84 1.3 WNW 20 30 11 16 1012.5 1012.4 0.0
18/09:00am 11.0 7.1 8.8 86 1.1 WNW 19 28 10 15 1012.0 1012.0 5.6
18/08:30am 11.0 7.0 9.1 88 1.0 NW 20 32 11 17 1011.6 1011.6 5.6
18/08:00am 10.9 7.5 9.0 88 1.0 NNW 17 24 9 13 1010.9 1010.9 5.6
18/07:30am 10.8 8.5 8.9 88 1.0 NW 11 17 6 9 1010.7 1010.7 5.4
18/07:00am 10.8 8.9 8.9 88 1.0 WNW 9 17 5 9 1011.1 1011.1 5.2
18/06:30am 10.8 8.9 8.9 88 1.0 WNW 9 13 5 7 1010.8 1010.8 4.0
18/06:00am 10.8 8.5 8.9 88 1.0 WSW 11 17 6 9 1010.0 1010.0 2.4
18/05:30am 11.1 7.1 9.0 87 1.1 WSW 20 28 11 15 1010.0 1010.0 2.4
18/05:00am 11.3 6.4 8.3 82 1.5 NW 24 35 13 19 1009.5 1009.4 2.2
18/04:30am 13.0 8.6 6.6 65 3.1 NNW 19 28 10 15 1009.3 1009.2 0.2
18/04:00am 14.2 9.5 5.3 55 4.3 N 19 28 10 15 1008.9 1008.9 0.0
18/03:30am 14.1 9.7 4.7 53 4.4 N 17 24 9 13 1009.3 1009.2 0.0
18/03:00am 14.3 10.1 3.7 49 4.9 N 15 22 8 12 1009.9 1009.8 0.0
18/02:30am 13.9 10.5 3.9 51 4.6 N 11 19 6 10 1009.8 1009.7 0.0
18/02:00am 13.8 9.2 3.9 51 4.6 N 17 22 9 12 1009.9 1009.8 0.0
18/01:30am 14.4 9.8 3.5 48 5.0 N 17 22 9 12 1009.9 1009.8 0.0
18/01:00am 13.9 10.1 3.7 50 4.7 N 13 19 7 10 1010.2 1010.2 0.0
18/12:30am 13.3 9.1 3.9 53 4.3 N 15 19 8 10 1010.5 1010.5 0.0
18/12:00am 13.7 9.1 3.5 50 4.7 N 17 24 9 13 1010.9 1010.9 0.0
 
Date/Time
WST
Temp
°C
App
Temp
°C
Dew
Point
°C
Rel
Hum
%
Delta-T
°C
Wind Press
QNH
hPa
Press
MSL
hPa
Rain since
9am
mm
Dir  Spd
km/h
Gust
km/h
Spd
kts
Gust
kts
17/11:30pm 13.0 8.7 3.4 52 4.4 N 15 20 8 11 1011.5 1011.5 0.0
17/11:00pm 12.4 8.8 3.1 53 4.2 N 11 17 6 9 1011.9 1011.9 0.0
17/10:30pm 12.3 8.3 3.0 53 4.2 N 13 19 7 10 1011.9 1011.9 0.0
17/10:00pm 12.1 8.2 3.3 55 4.0 NNE 13 17 7 9 1012.4 1012.3 0.0
17/09:30pm 12.4 8.5 3.4 54 4.1 N 13 17 7 9 1012.9 1012.9 0.0
17/09:00pm 13.8 9.8 3.0 48 4.9 N 13 19 7 10 1013.2 1013.2 0.0
17/08:30pm 14.1 9.8 3.0 47 5.1 N 15 19 8 10 1013.5 1013.5 0.0
17/08:00pm 14.0 9.7 3.2 48 4.9 N 15 19 8 10 1013.9 1013.9 0.0
17/07:30pm 14.5 10.5 3.0 46 5.3 N 13 19 7 10 1014.1 1014.1 0.0
17/07:00pm 14.4 10.1 3.2 47 5.1 N 15 20 8 11 1014.4 1014.4 0.0
17/06:30pm 15.4 11.5 3.5 45 5.5 N 13 17 7 9 1014.4 1014.4 0.0
17/06:00pm 15.6 11.8 3.7 45 5.6 N 13 20 7 11 1014.4 1014.4 0.0
17/05:30pm 16.6 12.4 3.7 42 6.1 N 15 19 8 10 1014.5 1014.5 0.0
17/05:00pm 17.6 12.8 2.8 37 6.9 N 17 24 9 13 1014.5 1014.5 0.0
17/04:30pm 18.7 13.3 2.5 34 7.6 N 20 30 11 16 1014.7 1014.7 0.0
17/04:00pm 19.2 13.5 2.6 33 7.8 N 22 37 12 20 1014.9 1014.9 0.0
17/03:30pm 19.5 13.7 2.4 32 8.0 N 22 33 12 18 1014.9 1014.9 0.0
17/03:00pm 19.7 13.6 3.0 33 7.9 N 24 37 13 20 1015.4 1015.5 0.0
17/02:30pm 19.7 13.6 3.0 33 7.9 N 24 35 13 19 1015.8 1015.8 0.0
17/02:00pm 19.5 13.5 3.6 35 7.6 N 24 37 13 20 1016.2 1016.2 0.0

Other Formats:

Comma delimited format used in spreadsheet applications
http://www.bom.gov.au/fwo/IDW60801/IDW60801.94641.axf

JavaScript Object Notation format (JSON) in row-major order
http://www.bom.gov.au/fwo/IDW60801/IDW60801.94641.json